Airfield :
LOGIN :

Register | Disclaimer

   EN    FR    IT 

 










Legend :    VFR   Marginal VFR   IFR   Intensive IFR   Very Intensive IFR
Visi :
Ceiling :
>= 8 km
>= 3000ft
5 to 8 km
1000 to 3000 ft
1500m to 5 km
500 to 1000 ft
800 to 1500m
200 to 500 ft
< 800m
< 200 ft
Symbols :   Thunderstorms  Fog  Heavy snow  Heavy precipitations  Wind > 20 kt
SIGMETs :     Misc.  Thunderstorms  Icing  Turbulence  Mountain Waves  Volcanic Ashes






- Airport Elevation : 52 ft
- IATA code : RNN


EKRN - Bornholm Ronne

CURRENT METAR :
  • 071050Z AUTO 28026KT 9999 BKN021/// 08/05 Q0996

EXPIRED METARs :
  • 071020Z AUTO 29024G34KT 9999 BKN019/// BKN071/// 08/05 Q0996
  • 070950Z AUTO 28026KT 9999 BKN014/// OVC054/// 08/06 Q0995
  • 070920Z AUTO 28024G35KT 9999 OVC005/// 08/07 Q0995
  • 070850Z AUTO 27020KT 7000 OVC003/// 08/08 Q0994
  • 070820Z AUTO 25019KT 2800 -SHRA BR OVC003/// 08/08 Q0994

TAF TAF EKRN
Valid from the 07 at 09:00 until the 07 at 18:00 UTC


070822Z 0709/0718 24020KT 2500 RADZ BKN003
BECMG 0709/0711 29025G38KT 9999 NSW SCT025
TEMPO 0711/0718 28022KT FEW015TCU



MET'MAP, your aeronautical weather chart ! - Copyright ORBIFLY December 2007 - Disclaimer

ORBIFLY MET'MAP TEAM :

Programming & Development : Alexandra Zaïnal
Concept & original design : Baudouin d'Aumeries
Assistance for programming : Marc-Olivier Méhu
Technical & hardware support : Manuel Goepfert

Contact : metmap@orbifly.com




SOURCES & CREDITS :

   NOAA